Weather reports worldwide

Advertisment
Konnerud, Norway (1477): temperature & dewpoint: 25.09.2020 15:00:00 - 01.10.2020 15:00:00 (CEST)Konnerud, Norway (1477): wind speed & gusts: 25.09.2020 15:00:00 - 01.10.2020 15:00:00 (CEST)Konnerud, Norway (1477): wind direction: 25.09.2020 15:00:00 - 01.10.2020 15:00:00 (CEST)Konnerud, Norway (1477): precipitation: 25.09.2020 15:00:00 - 01.10.2020 15:00:00 (CEST)
Date & Time tt [°C] td [°C] ff [km/h] ff [kn] fx [km/h] fx [kn] dd rr [mm]
01.10.2020 15:00:00 11,2 8,8 5 3 13 7 ENE 0,0
01.10.2020 14:00:00 10,8 9,1 4 2 14 7 ENE 0,0
01.10.2020 13:00:00 - - - - 17 9 - -
01.10.2020 12:00:00 10,4 9,6 8 5 21 11 E 0,0
01.10.2020 11:00:00 10,8 9,9 8 4 20 11 E 0,0
01.10.2020 10:00:00 10,8 9,9 7 4 16 9 E 0,0
01.10.2020 09:00:00 10,8 10,3 4 2 13 7 E 0,0
01.10.2020 08:00:00 10,7 10,4 3 2 9 5 E 0,0
01.10.2020 07:00:00 10,4 10,2 1 1 4 2 N 0,0
01.10.2020 06:00:00 10,4 10,1 1 1 4 2 WSW 0,0
01.10.2020 05:00:00 10,9 10,6 2 1 6 3 W 0,0
01.10.2020 04:00:00 10,9 10,6 1 1 6 3 NE 0,0
01.10.2020 03:00:00 10,9 10,6 1 1 5 3 E 0,0
01.10.2020 02:00:00 11,1 10,5 1 0 7 4 NNE 0,0
01.10.2020 01:00:00 11,5 10,7 4 2 10 6 ESE 0,0
01.10.2020 00:00:00 11,7 10,9 3 2 12 6 E 0,0
30.09.2020 23:00:00 - - - - - - - -
30.09.2020 22:00:00 12,5 11,9 6 3 19 10 SE 0,0
30.09.2020 21:00:00 12,3 11,7 7 4 17 9 SE 0,0
30.09.2020 20:00:00 12,3 11,7 4 2 16 9 SE 0,0
30.09.2020 19:00:00 12,4 11,9 7 4 15 8 SE 0,0
30.09.2020 18:00:00 12,6 12,1 7 4 20 11 SE 0,0
30.09.2020 17:00:00 12,5 12,0 7 4 20 11 SE 0,0
30.09.2020 16:00:00 12,6 12,1 7 4 19 10 SE 0,0
30.09.2020 15:00:00 12,6 12,1 6 3 19 11 ESE 0,0
30.09.2020 14:00:00 12,2 11,6 4 2 16 9 ESE 0,0
30.09.2020 13:00:00 11,9 11,4 7 4 16 9 ESE 0,0
30.09.2020 12:00:00 11,5 11,2 4 2 7 4 SE 0,0
30.09.2020 11:00:00 10,9 10,6 3 2 8 4 SSE 0,0
30.09.2020 10:00:00 10,9 10,6 3 2 8 4 SE 0,0
30.09.2020 09:00:00 10,8 10,7 3 2 9 5 SE 0,0
30.09.2020 08:00:00 10,7 10,5 3 2 9 5 ESE 0,0
30.09.2020 07:00:00 10,9 10,7 3 2 10 5 SE 0,0
30.09.2020 06:00:00 10,9 10,7 5 3 10 6 ESE 0,0
30.09.2020 05:00:00 - - - - - - - -
30.09.2020 04:00:00 10,9 10,7 3 2 9 5 SE 0,0
30.09.2020 03:00:00 10,9 10,7 4 2 14 8 SE 0,0
30.09.2020 02:00:00 10,2 10,2 1 1 6 3 NE 0,0
30.09.2020 01:00:00 9,1 9,1 1 0 5 3 NNW 0,0
30.09.2020 00:00:00 8,3 8,2 3 1 4 2 NW 0,0
29.09.2020 23:00:00 6,7 6,5 3 2 6 4 NW 0,0
29.09.2020 22:00:00 6,8 6,7 1 1 5 3 NW 0,0
29.09.2020 21:00:00 8,0 7,7 2 1 4 2 NW 0,0
29.09.2020 20:00:00 9,4 9,1 2 1 4 2 WNW 0,0
29.09.2020 19:00:00 10,6 10,1 2 1 4 2 WNW 0,0
29.09.2020 18:00:00 12,1 11,2 3 1 10 5 ESE 0,0
29.09.2020 17:00:00 12,9 11,5 3 2 14 8 S 0,0
29.09.2020 16:00:00 - - - - - - - -
29.09.2020 15:00:00 12,5 11,9 3 2 14 8 SE 0,0
29.09.2020 14:00:00 12,5 12,0 8 4 18 10 SE 0,0
29.09.2020 13:00:00 12,8 12,5 5 3 15 8 ESE 0,0
29.09.2020 12:00:00 12,4 12,1 6 3 12 7 SE 0,0
29.09.2020 11:00:00 12,0 11,7 2 1 8 5 E 0,0
29.09.2020 10:00:00 11,9 11,6 2 1 7 4 E 1,0
29.09.2020 09:00:00 11,8 11,5 2 1 6 3 SE 4,0
29.09.2020 08:00:00 11,6 11,3 0 0 5 3 NNW 0,0
29.09.2020 07:00:00 11,6 11,3 2 1 8 5 ENE 0,0
29.09.2020 06:00:00 11,6 11,3 3 2 6 4 ENE 0,0
29.09.2020 05:00:00 11,5 11,2 1 1 8 4 NE 0,0
29.09.2020 04:00:00 11,5 11,2 1 1 6 3 NE 0,0
29.09.2020 03:00:00 11,5 11,2 1 0 6 3 N 0,0
29.09.2020 02:00:00 11,5 11,0 1 1 5 3 NE 0,0
29.09.2020 01:00:00 - - - - - - - -
29.09.2020 00:00:00 11,4 10,9 0 0 1 1 N 0,0
28.09.2020 23:00:00 11,4 10,8 0 0 3 1 N 0,0
28.09.2020 22:00:00 11,5 10,9 0 0 3 2 N 0,0
28.09.2020 21:00:00 11,6 10,8 1 1 3 2 WNW 0,0
28.09.2020 20:00:00 11,8 10,7 0 0 3 1 NNE 0,0
28.09.2020 19:00:00 12,2 10,6 1 0 5 3 NNW 0,0
28.09.2020 18:00:00 - - - - - - - -
28.09.2020 17:00:00 13,2 10,6 3 1 9 5 ENE 0,0
28.09.2020 16:00:00 13,6 10,8 3 1 8 4 E 0,0
28.09.2020 15:00:00 13,7 10,1 4 2 14 8 E 0,0
28.09.2020 14:00:00 14,0 10,4 4 2 18 10 ENE 0,0
28.09.2020 13:00:00 14,2 9,8 7 4 16 9 NE 0,0
28.09.2020 12:00:00 12,7 10,1 5 3 10 5 NNW 0,0
28.09.2020 11:00:00 12,5 10,2 5 3 15 8 NNE 0,0
28.09.2020 10:00:00 11,5 9,7 5 3 12 6 NNE 0,0
28.09.2020 09:00:00 10,7 9,9 3 2 9 5 N 0,0
28.09.2020 08:00:00 8,9 8,5 0 0 5 3 N 0,0
28.09.2020 07:00:00 - - - - - - - -
28.09.2020 06:00:00 10,3 9,5 2 1 5 3 NW 0,0
28.09.2020 05:00:00 10,7 9,8 3 2 11 6 N 0,0
28.09.2020 04:00:00 10,7 9,8 1 1 9 5 N 0,0
28.09.2020 03:00:00 10,7 9,8 4 2 10 5 NW 0,0
28.09.2020 02:00:00 10,6 9,8 5 3 9 5 NNW 0,0
28.09.2020 01:00:00 10,6 9,8 3 2 8 4 NW 0,0
28.09.2020 00:00:00 10,9 9,7 3 2 14 8 N 0,0
27.09.2020 23:00:00 10,7 9,9 4 2 16 9 NNW 0,0
27.09.2020 22:00:00 10,4 9,6 1 1 7 4 NNE 0,0
27.09.2020 21:00:00 10,8 9,7 3 1 11 6 N 0,0
27.09.2020 20:00:00 10,5 9,9 4 2 11 6 NW 0,0
27.09.2020 19:00:00 - - - - - - - -
27.09.2020 18:00:00 11,3 9,7 3 2 11 6 NNW 0,0
27.09.2020 17:00:00 11,4 9,5 5 3 15 8 NW 0,0
27.09.2020 16:00:00 11,4 9,3 5 3 11 6 NNW 0,0
27.09.2020 15:00:00 11,3 9,6 4 2 10 6 NNW 0,0
27.09.2020 14:00:00 11,3 9,4 4 2 13 7 NNW 0,0
27.09.2020 13:00:00 10,8 8,9 5 3 14 8 NNW 0,0
27.09.2020 12:00:00 10,0 8,3 5 3 14 7 NNW 0,0
27.09.2020 11:00:00 - - - - - - - -
27.09.2020 10:00:00 - - - - - - - -
27.09.2020 09:00:00 9,1 7,7 5 3 13 7 NNW 0,0
27.09.2020 08:00:00 9,0 7,5 7 4 15 8 NW 0,0
27.09.2020 07:00:00 8,7 7,5 3 1 11 6 N 0,0
27.09.2020 06:00:00 8,6 7,2 6 3 18 10 NNW 0,0
27.09.2020 05:00:00 8,5 7,1 5 3 15 8 NNW 0,0
27.09.2020 04:00:00 8,3 7,1 8 4 18 10 NW 0,0
27.09.2020 03:00:00 8,1 7,4 8 5 18 10 NW 0,0
27.09.2020 02:00:00 8,1 7,4 5 3 14 7 NW 0,0
27.09.2020 01:00:00 8,7 7,2 6 3 18 10 NNW 0,0
27.09.2020 00:00:00 9,1 6,5 6 4 27 14 N 0,0
26.09.2020 23:00:00 - - - - - - - -
26.09.2020 22:00:00 9,1 6,5 8 5 26 14 N 0,0
26.09.2020 21:00:00 8,8 6,4 5 3 21 11 N 0,0
26.09.2020 20:00:00 8,6 6,4 7 4 22 12 NNW 0,0
26.09.2020 19:00:00 8,3 6,4 7 4 24 13 N 0,0
26.09.2020 18:00:00 8,2 6,3 7 4 22 12 N 0,0
26.09.2020 17:00:00 7,9 6,5 9 5 25 14 N 0,0
26.09.2020 16:00:00 8,4 5,7 8 4 27 15 NNE 0,0
26.09.2020 15:00:00 8,3 5,9 6 3 22 12 N 0,0
26.09.2020 14:00:00 7,8 5,6 9 5 31 17 N 0,0
26.09.2020 13:00:00 7,1 5,7 7 4 35 19 N 0,0
26.09.2020 12:00:00 6,6 5,2 9 5 37 20 N 0,0
26.09.2020 11:00:00 - - - - - - - -
26.09.2020 10:00:00 5,8 4,6 7 4 29 16 N 0,0
26.09.2020 09:00:00 5,7 4,5 10 5 - - N 0,0
26.09.2020 08:00:00 5,5 4,3 11 6 33 18 NNW 2,0
26.09.2020 07:00:00 5,5 4,2 13 7 38 21 NNW 1,0
26.09.2020 06:00:00 5,6 4,4 10 5 55 30 NNW 5,0
26.09.2020 05:00:00 5,8 4,6 11 6 37 20 NNW 10,0
26.09.2020 04:00:00 6,3 5,1 10 5 32 17 N 5,0
26.09.2020 03:00:00 6,6 5,4 11 6 32 18 N 5,0
26.09.2020 02:00:00 6,9 5,5 10 5 27 14 N 4,0
26.09.2020 01:00:00 7,3 6,2 8 5 22 12 NNW 1,0
26.09.2020 00:00:00 7,8 6,4 8 5 22 12 NNW 0,0
25.09.2020 23:00:00 - - - - - - - -
25.09.2020 22:00:00 8,3 7,5 7 4 22 12 NNW 3,0
25.09.2020 21:00:00 8,7 7,8 4 2 16 9 NNW 2,0
25.09.2020 20:00:00 8,9 8,0 6 3 21 11 N 2,0
25.09.2020 19:00:00 - - - - - - - -
25.09.2020 18:00:00 9,7 7,7 6 3 16 9 N 0,0
25.09.2020 17:00:00 10,9 6,9 5 3 14 7 NNW 0,0
25.09.2020 16:00:00 10,8 6,4 4 2 14 7 N 0,0
25.09.2020 15:00:00 10,9 5,7 6 3 16 9 N 0,0

tt = temperature
td = dewpoint
ff = wind speed
fx = gusts
dd = wind direction
rr = precipitation

Next stations